sensor_id;sensor_type;location;lat;lon;timestamp;pressure;altitude;pressure_sealevel;temperature;humidity
27705;BME280;15109;50.992;6.918;2023-02-12T00:01:26;103218.34;;;7.46;100.00
27705;BME280;15109;50.992;6.918;2023-02-12T00:04:49;103232.91;;;7.45;100.00
27705;BME280;15109;50.992;6.918;2023-02-12T00:08:10;103220.38;;;7.42;100.00
27705;BME280;15109;50.992;6.918;2023-02-12T00:11:35;103218.34;;;7.46;100.00
27705;BME280;15109;50.992;6.918;2023-02-12T00:14:57;103222.25;;;7.42;100.00
27705;BME280;15109;50.992;6.918;2023-02-12T00:18:18;103222.91;;;7.45;100.00
27705;BME280;15109;50.992;6.918;2023-02-12T00:21:39;103213.94;;;7.43;100.00
27705;BME280;15109;50.992;6.918;2023-02-12T00:25:00;103225.72;;;7.44;100.00
27705;BME280;15109;50.992;6.918;2023-02-12T00:28:22;103229.31;;;7.44;100.00
27705;BME280;15109;50.992;6.918;2023-02-12T00:31:43;103226.81;;;7.41;100.00
27705;BME280;15109;50.992;6.918;2023-02-12T00:35:04;103223.22;;;7.41;100.00
27705;BME280;15109;50.992;6.918;2023-02-12T00:38:27;103224.19;;;7.40;100.00
27705;BME280;15109;50.992;6.918;2023-02-12T00:41:48;103218.75;;;7.40;100.00
27705;BME280;15109;50.992;6.918;2023-02-12T00:45:09;103214.25;;;7.39;100.00
27705;BME280;15109;50.992;6.918;2023-02-12T00:48:32;103214.16;;;7.40;100.00
27705;BME280;15109;50.992;6.918;2023-02-12T00:51:53;103209.81;;;7.38;100.00
27705;BME280;15109;50.992;6.918;2023-02-12T00:55:14;103211.75;;;7.36;100.00
27705;BME280;15109;50.992;6.918;2023-02-12T00:58:35;103202.06;;;7.32;100.00
27705;BME280;15109;50.992;6.918;2023-02-12T01:02:03;103207.72;;;7.28;100.00
27705;BME280;15109;50.992;6.918;2023-02-12T01:05:24;103201.41;;;7.28;100.00
27705;BME280;15109;50.992;6.918;2023-02-12T01:08:48;103214.22;;;7.26;100.00
27705;BME280;15109;50.992;6.918;2023-02-12T01:12:09;103213.47;;;7.24;100.00
27705;BME280;15109;50.992;6.918;2023-02-12T01:15:30;103220.97;;;7.20;100.00
27705;BME280;15109;50.992;6.918;2023-02-12T01:18:51;103212.69;;;7.22;100.00
27705;BME280;15109;50.992;6.918;2023-02-12T01:22:14;103202.69;;;7.22;100.00
27705;BME280;15109;50.992;6.918;2023-02-12T01:25:37;103210.19;;;7.19;100.00
27705;BME280;15109;50.992;6.918;2023-02-12T01:28:59;103214.66;;;7.20;100.00
27705;BME280;15109;50.992;6.918;2023-02-12T01:32:22;103209.31;;;7.18;100.00
27705;BME280;15109;50.992;6.918;2023-02-12T01:35:43;103210.19;;;7.19;100.00
27705;BME280;15109;50.992;6.918;2023-02-12T01:39:06;103213.78;;;7.19;100.00
27705;BME280;15109;50.992;6.918;2023-02-12T01:42:27;103212.03;;;7.18;100.00
27705;BME280;15109;50.992;6.918;2023-02-12T01:45:49;103211.16;;;7.18;100.00
27705;BME280;15109;50.992;6.918;2023-02-12T01:49:23;103213.47;;;7.24;100.00
27705;BME280;15109;50.992;6.918;2023-02-12T01:52:49;103211.72;;;7.23;100.00
27705;BME280;15109;50.992;6.918;2023-02-12T01:56:11;103205.31;;;7.24;100.00
27705;BME280;15109;50.992;6.918;2023-02-12T01:59:35;103211.81;;;7.21;100.00
27705;BME280;15109;50.992;6.918;2023-02-12T02:02:57;103199.22;;;7.20;100.00
27705;BME280;15109;50.992;6.918;2023-02-12T02:06:20;103206.50;;;7.20;100.00
27705;BME280;15109;50.992;6.918;2023-02-12T02:09:43;103200.94;;;7.21;100.00
27705;BME280;15109;50.992;6.918;2023-02-12T02:13:04;103204.44;;;7.23;100.00
27705;BME280;15109;50.992;6.918;2023-02-12T02:16:46;103205.31;;;7.24;100.00
27705;BME280;15109;50.992;6.918;2023-02-12T02:28:10;103200.19;;;7.19;100.00
27705;BME280;15109;50.992;6.918;2023-02-12T02:31:23;103191.25;;;7.17;100.00
27705;BME280;15109;50.992;6.918;2023-02-12T02:34:49;103196.38;;;7.22;100.00
27705;BME280;15109;50.992;6.918;2023-02-12T02:38:18;103194.75;;;7.19;100.00
27705;BME280;15109;50.992;6.918;2023-02-12T02:41:56;103198.78;;;7.26;100.00
27705;BME280;15109;50.992;6.918;2023-02-12T02:45:41;103192.78;;;7.21;100.00
27705;BME280;15109;50.992;6.918;2023-02-12T02:49:03;103191.91;;;7.21;100.00
27705;BME280;15109;50.992;6.918;2023-02-12T02:52:27;103191.81;;;7.22;100.00
27705;BME280;15109;50.992;6.918;2023-02-12T02:55:52;103186.06;;;7.27;100.00
27705;BME280;15109;50.992;6.918;2023-02-12T02:59:16;103187.16;;;7.24;100.00
27705;BME280;15109;50.992;6.918;2023-02-12T03:02:39;103183.53;;;7.24;100.00
27705;BME280;15109;50.992;6.918;2023-02-12T03:09:51;103198.78;;;7.26;100.00
27705;BME280;15109;50.992;6.918;2023-02-12T03:13:25;103190.72;;;7.25;100.00
27705;BME280;15109;50.992;6.918;2023-02-12T03:16:58;103191.72;;;7.24;100.00
27705;BME280;15109;50.992;6.918;2023-02-12T03:20:30;103193.44;;;7.25;100.00
27705;BME280;15109;50.992;6.918;2023-02-12T03:23:54;103197.16;;;7.24;100.00
27705;BME280;15109;50.992;6.918;2023-02-12T03:30:43;103188.13;;;7.23;100.00
27705;BME280;15109;50.992;6.918;2023-02-12T03:34:08;103181.78;;;7.23;100.00
27705;BME280;15109;50.992;6.918;2023-02-12T03:47:47;103185.09;;;7.28;100.00
27705;BME280;15109;50.992;6.918;2023-02-12T03:54:40;103179.50;;;7.29;100.00
27705;BME280;15109;50.992;6.918;2023-02-12T03:58:01;103179.63;;;7.28;100.00
27705;BME280;15109;50.992;6.918;2023-02-12T04:01:23;103184.44;;;7.24;100.00
27705;BME280;15109;50.992;6.918;2023-02-12T04:04:47;103177.22;;;7.23;100.00
27705;BME280;15109;50.992;6.918;2023-02-12T04:08:08;103187.34;;;7.21;100.00
27705;BME280;15109;50.992;6.918;2023-02-12T04:16:01;103192.69;;;7.23;100.00
27705;BME280;15109;50.992;6.918;2023-02-12T04:18:51;103198.03;;;7.24;100.00
27705;BME280;15109;50.992;6.918;2023-02-12T04:22:23;103199.09;;;7.22;100.00
27705;BME280;15109;50.992;6.918;2023-02-12T04:33:07;103206.50;;;7.20;100.00
27705;BME280;15109;50.992;6.918;2023-02-12T04:36:34;103206.59;;;7.18;100.00
27705;BME280;15109;50.992;6.918;2023-02-12T04:39:58;103222.03;;;7.18;100.00
27705;BME280;15109;50.992;6.918;2023-02-12T04:43:29;103220.28;;;7.17;100.00
27705;BME280;15109;50.992;6.918;2023-02-12T04:46:51;103224.00;;;7.16;100.00
27705;BME280;15109;50.992;6.918;2023-02-12T04:50:12;103219.22;;;7.19;100.00
27705;BME280;15109;50.992;6.918;2023-02-12T04:53:34;103224.19;;;7.13;100.00
27705;BME280;15109;50.992;6.918;2023-02-12T04:56:55;103224.00;;;7.16;100.00
27705;BME280;15109;50.992;6.918;2023-02-12T05:00:16;103221.28;;;7.16;100.00
27705;BME280;15109;50.992;6.918;2023-02-12T05:03:37;103218.34;;;7.19;100.00
27705;BME280;15109;50.992;6.918;2023-02-12T05:06:58;103214.75;;;7.18;100.00
27705;BME280;15109;50.992;6.918;2023-02-12T05:10:18;103217.78;;;7.14;100.00
27705;BME280;15109;50.992;6.918;2023-02-12T05:13:40;103211.25;;;7.16;100.00
27705;BME280;15109;50.992;6.918;2023-02-12T05:17:01;103220.09;;;7.20;100.00
27705;BME280;15109;50.992;6.918;2023-02-12T05:20:23;103213.56;;;7.22;100.00
27705;BME280;15109;50.992;6.918;2023-02-12T05:23:44;103214.66;;;7.20;100.00
27705;BME280;15109;50.992;6.918;2023-02-12T05:27:07;103214.75;;;7.18;100.00
27705;BME280;15109;50.992;6.918;2023-02-12T05:30:31;103219.09;;;7.21;100.00
27705;BME280;15109;50.992;6.918;2023-02-12T05:33:52;103219.53;;;7.15;100.00
27705;BME280;15109;50.992;6.918;2023-02-12T05:37:13;103224.00;;;7.16;100.00
27705;BME280;15109;50.992;6.918;2023-02-12T05:40:35;103225.03;;;7.27;100.00
27705;BME280;15109;50.992;6.918;2023-02-12T05:43:57;103224.06;;;7.28;100.00
27705;BME280;15109;50.992;6.918;2023-02-12T05:47:21;103226.78;;;7.28;100.00
27705;BME280;15109;50.992;6.918;2023-02-12T05:50:42;103232.66;;;7.35;100.00
27705;BME280;15109;50.992;6.918;2023-02-12T05:54:03;103229.28;;;7.32;100.00
27705;BME280;15109;50.992;6.918;2023-02-12T05:57:25;103236.47;;;7.33;100.00
27705;BME280;15109;50.992;6.918;2023-02-12T06:00:46;103230.91;;;7.34;100.00
27705;BME280;15109;50.992;6.918;2023-02-12T06:04:13;103237.53;;;7.30;100.00
27705;BME280;15109;50.992;6.918;2023-02-12T06:07:36;103247.84;;;7.25;100.00
27705;BME280;15109;50.992;6.918;2023-02-12T06:10:58;103243.28;;;7.25;100.00
27705;BME280;15109;50.992;6.918;2023-02-12T06:14:19;103235.25;;;7.24;100.00
27705;BME280;15109;50.992;6.918;2023-02-12T06:17:42;103242.53;;;7.23;100.00
27705;BME280;15109;50.992;6.918;2023-02-12T06:21:03;103239.50;;;7.28;100.00
27705;BME280;15109;50.992;6.918;2023-02-12T06:24:24;103235.81;;;7.29;100.00
27705;BME280;15109;50.992;6.918;2023-02-12T06:27:45;103242.88;;;7.32;100.00
27705;BME280;15109;50.992;6.918;2023-02-12T06:31:16;103237.44;;;7.32;100.00
27705;BME280;15109;50.992;6.918;2023-02-12T06:34:38;103245.28;;;7.36;100.00
27705;BME280;15109;50.992;6.918;2023-02-12T06:37:59;103240.81;;;7.35;100.00
27705;BME280;15109;50.992;6.918;2023-02-12T06:41:20;103231.69;;;7.36;100.00
27705;BME280;15109;50.992;6.918;2023-02-12T06:44:41;103229.84;;;7.37;100.00
27705;BME280;15109;50.992;6.918;2023-02-12T06:48:02;103251.41;;;7.40;100.00
27705;BME280;15109;50.992;6.918;2023-02-12T06:51:26;103253.16;;;7.41;100.00
27705;BME280;15109;50.992;6.918;2023-02-12T06:54:47;103264.13;;;7.39;100.00
27705;BME280;15109;50.992;6.918;2023-02-12T06:58:08;103257.72;;;7.40;100.00
27705;BME280;15109;50.992;6.918;2023-02-12T07:01:30;103251.31;;;7.41;100.00
27705;BME280;15109;50.992;6.918;2023-02-12T07:04:51;103273.09;;;7.41;100.00
27705;BME280;15109;50.992;6.918;2023-02-12T07:08:12;103273.75;;;7.45;100.00
27705;BME280;15109;50.992;6.918;2023-02-12T07:11:33;103271.09;;;7.43;100.00
27705;BME280;15109;50.992;6.918;2023-02-12T07:14:55;103270.16;;;7.44;100.00
27705;BME280;15109;50.992;6.918;2023-02-12T07:18:16;103278.88;;;7.49;100.00
27705;BME280;15109;50.992;6.918;2023-02-12T07:21:38;103278.88;;;7.49;100.00
27705;BME280;15109;50.992;6.918;2023-02-12T07:25:00;103276.59;;;7.56;100.00
27705;BME280;15109;50.992;6.918;2023-02-12T07:28:21;103283.47;;;7.61;100.00
27705;BME280;15109;50.992;6.918;2023-02-12T07:31:42;103287.06;;;7.62;100.00
27705;BME280;15109;50.992;6.918;2023-02-12T07:35:03;103290.47;;;7.65;100.00
27705;BME280;15109;50.992;6.918;2023-02-12T07:38:24;103285.56;;;7.70;100.00
27705;BME280;15109;50.992;6.918;2023-02-12T07:41:46;103287.31;;;7.71;100.00
27705;BME280;15109;50.992;6.918;2023-02-12T07:45:08;103299.09;;;7.72;100.00
27705;BME280;15109;50.992;6.918;2023-02-12T07:48:29;103302.25;;;7.79;100.00
27705;BME280;15109;50.992;6.918;2023-02-12T07:51:50;103305.84;;;7.79;100.00
27705;BME280;15109;50.992;6.918;2023-02-12T07:55:12;103295.63;;;7.83;100.00
27705;BME280;15109;50.992;6.918;2023-02-12T07:58:33;103299.66;;;7.90;100.00
27705;BME280;15109;50.992;6.918;2023-02-12T08:01:56;103310.13;;;7.96;100.00
27705;BME280;15109;50.992;6.918;2023-02-12T08:05:18;103307.41;;;7.96;100.00
27705;BME280;15109;50.992;6.918;2023-02-12T08:08:40;103309.16;;;7.97;100.00
27705;BME280;15109;50.992;6.918;2023-02-12T08:12:02;103316.06;;;8.02;100.00
27705;BME280;15109;50.992;6.918;2023-02-12T08:15:23;103321.28;;;8.05;100.00
27705;BME280;15109;50.992;6.918;2023-02-12T08:18:44;103321.94;;;8.09;100.00
27705;BME280;15109;50.992;6.918;2023-02-12T08:22:05;103310.38;;;8.18;100.00
27705;BME280;15109;50.992;6.918;2023-02-12T08:25:27;103317.28;;;8.24;100.00
27705;BME280;15109;50.992;6.918;2023-02-12T08:28:50;103317.78;;;8.29;100.00
27705;BME280;15109;50.992;6.918;2023-02-12T08:32:14;103320.03;;;8.36;100.00
27705;BME280;15109;50.992;6.918;2023-02-12T08:35:37;103327.56;;;8.45;100.00
27705;BME280;15109;50.992;6.918;2023-02-12T08:39:00;103323.63;;;8.49;100.00
27705;BME280;15109;50.992;6.918;2023-02-12T08:42:20;103320.34;;;8.57;100.00
27705;BME280;15109;50.992;6.918;2023-02-12T08:45:43;103322.50;;;8.64;100.00
27705;BME280;15109;50.992;6.918;2023-02-12T08:49:09;103322.19;;;8.69;100.00
27705;BME280;15109;50.992;6.918;2023-02-12T08:52:33;103324.47;;;8.75;100.00
27705;BME280;15109;50.992;6.918;2023-02-12T08:55:54;103328.41;;;8.84;100.00
27705;BME280;15109;50.992;6.918;2023-02-12T08:59:15;103314.41;;;8.88;100.00
27705;BME280;15109;50.992;6.918;2023-02-12T09:02:36;103325.00;;;8.93;100.00
27705;BME280;15109;50.992;6.918;2023-02-12T09:05:57;103319.31;;;8.96;100.00
27705;BME280;15109;50.992;6.918;2023-02-12T09:09:21;103326.28;;;9.00;100.00
27705;BME280;15109;50.992;6.918;2023-02-12T09:12:45;103326.47;;;9.09;100.00
27705;BME280;15109;50.992;6.918;2023-02-12T09:16:06;103326.88;;;9.16;100.00
27705;BME280;15109;50.992;6.918;2023-02-12T09:19:26;103326.88;;;9.16;100.00
27705;BME280;15109;50.992;6.918;2023-02-12T09:22:47;103336.50;;;9.22;100.00
27705;BME280;15109;50.992;6.918;2023-02-12T09:26:10;103333.28;;;9.28;100.00
27705;BME280;15109;50.992;6.918;2023-02-12T09:29:31;103337.97;;;9.38;100.00
27705;BME280;15109;50.992;6.918;2023-02-12T09:32:53;103337.59;;;9.43;100.00
27705;BME280;15109;50.992;6.918;2023-02-12T09:36:15;103334.19;;;9.52;100.00
27705;BME280;15109;50.992;6.918;2023-02-12T09:39:37;103328.38;;;9.56;100.00
27705;BME280;15109;50.992;6.918;2023-02-12T09:43:06;103337.09;;;9.62;100.00
27705;BME280;15109;50.992;6.918;2023-02-12T09:46:50;103338.63;;;9.66;100.00
27705;BME280;15109;50.992;6.918;2023-02-12T09:53:44;103339.69;;;9.87;100.00
27705;BME280;15109;50.992;6.918;2023-02-12T09:57:11;103340.69;;;9.86;100.00
27705;BME280;15109;50.992;6.918;2023-02-12T10:00:35;103346.41;;;9.94;100.00
27705;BME280;15109;50.992;6.918;2023-02-12T10:03:59;103350.66;;;9.98;100.00
27705;BME280;15109;50.992;6.918;2023-02-12T10:25:19;103343.72;;;10.40;100.00
27705;BME280;15109;50.992;6.918;2023-02-12T10:28:42;103345.34;;;10.42;100.00
27705;BME280;15109;50.992;6.918;2023-02-12T10:32:05;103348.81;;;10.44;100.00
27705;BME280;15109;50.992;6.918;2023-02-12T10:35:26;103346.84;;;10.46;100.00
27705;BME280;15109;50.992;6.918;2023-02-12T10:38:51;103336.66;;;10.48;100.00
27705;BME280;15109;50.992;6.918;2023-02-12T10:42:37;103341.91;;;10.63;100.00
27705;BME280;15109;50.992;6.918;2023-02-12T10:45:59;103337.19;;;10.76;100.00
27705;BME280;15109;50.992;6.918;2023-02-12T10:49:19;103332.31;;;10.79;100.00
27705;BME280;15109;50.992;6.918;2023-02-12T10:52:49;103326.13;;;11.00;100.00
27705;BME280;15109;50.992;6.918;2023-02-12T10:56:15;103327.00;;;11.00;100.00
27705;BME280;15109;50.992;6.918;2023-02-12T10:59:39;103323.47;;;11.09;100.00
27705;BME280;15109;50.992;6.918;2023-02-12T11:06:35;103327.94;;;11.21;100.00
27705;BME280;15109;50.992;6.918;2023-02-12T11:09:56;103327.81;;;11.23;100.00
27705;BME280;15109;50.992;6.918;2023-02-12T11:13:21;103321.22;;;11.14;100.00
27705;BME280;15109;50.992;6.918;2023-02-12T11:16:56;103308.78;;;11.10;100.00
27705;BME280;15109;50.992;6.918;2023-02-12T11:27:44;103311.53;;;11.21;100.00
27705;BME280;15109;50.992;6.918;2023-02-12T11:31:25;103304.63;;;11.27;100.00
27705;BME280;15109;50.992;6.918;2023-02-12T11:35:02;103303.00;;;11.35;100.00
27705;BME280;15109;50.992;6.918;2023-02-12T11:38:25;103305.50;;;11.38;100.00
27705;BME280;15109;50.992;6.918;2023-02-12T11:41:49;103292.91;;;11.47;100.00
27705;BME280;15109;50.992;6.918;2023-02-12T11:45:14;103296.03;;;11.43;100.00
27705;BME280;15109;50.992;6.918;2023-02-12T11:48:39;103286.72;;;11.34;100.00
27705;BME280;15109;50.992;6.918;2023-02-12T11:52:04;103285.19;;;11.41;100.00
27705;BME280;15109;50.992;6.918;2023-02-12T11:55:26;103286.78;;;11.44;100.00
27705;BME280;15109;50.992;6.918;2023-02-12T11:58:49;103283.66;;;11.48;100.00
27705;BME280;15109;50.992;6.918;2023-02-12T12:05:34;103280.13;;;11.57;100.00
27705;BME280;15109;50.992;6.918;2023-02-12T12:16:04;103259.28;;;11.66;100.00
27705;BME280;15109;50.992;6.918;2023-02-12T12:23:15;103259.28;;;11.66;100.00
27705;BME280;15109;50.992;6.918;2023-02-12T12:26:37;103262.03;;;11.77;100.00
27705;BME280;15109;50.992;6.918;2023-02-12T12:29:59;103251.78;;;11.79;100.00
27705;BME280;15109;50.992;6.918;2023-02-12T12:33:31;103248.19;;;11.78;100.00
27705;BME280;15109;50.992;6.918;2023-02-12T13:08:05;103197.69;;;12.02;100.00
27705;BME280;15109;50.992;6.918;2023-02-12T13:11:38;103196.53;;;12.04;100.00
27705;BME280;15109;50.992;6.918;2023-02-12T13:15:13;103194.31;;;12.19;100.00
27705;BME280;15109;50.992;6.918;2023-02-12T13:18:44;103197.59;;;12.13;100.00
27705;BME280;15109;50.992;6.918;2023-02-12T13:22:10;103198.75;;;12.10;100.00
27705;BME280;15109;50.992;6.918;2023-02-12T13:29:05;103190.06;;;12.05;100.00
27705;BME280;15109;50.992;6.918;2023-02-12T13:32:34;103179.03;;;11.96;100.00
27705;BME280;15109;50.992;6.918;2023-02-12T13:35:57;103185.19;;;11.88;100.00
27705;BME280;15109;50.992;6.918;2023-02-12T13:39:28;103180.59;;;11.89;100.00
27705;BME280;15109;50.992;6.918;2023-02-12T13:50:07;103173.34;;;11.88;100.00
27705;BME280;15109;50.992;6.918;2023-02-12T13:57:07;103166.84;;;12.09;100.00
27705;BME280;15109;50.992;6.918;2023-02-12T14:11:03;103151.06;;;12.02;100.00
27705;BME280;15109;50.992;6.918;2023-02-12T14:14:31;103155.50;;;11.93;100.00
27705;BME280;15109;50.992;6.918;2023-02-12T14:18:00;103159.53;;;11.89;100.00
27705;BME280;15109;50.992;6.918;2023-02-12T14:24:49;103153.16;;;11.89;100.00
27705;BME280;15109;50.992;6.918;2023-02-12T14:31:35;103161.91;;;11.82;100.00
27705;BME280;15109;50.992;6.918;2023-02-12T14:34:56;103159.75;;;11.76;100.00
27705;BME280;15109;50.992;6.918;2023-02-12T14:45:33;103158.66;;;11.68;100.00
27705;BME280;15109;50.992;6.918;2023-02-12T14:48:55;103163.31;;;11.56;100.00
27705;BME280;15109;50.992;6.918;2023-02-12T14:52:26;103160.84;;;11.53;100.00
27705;BME280;15109;50.992;6.918;2023-02-12T14:55:48;103162.47;;;11.56;100.00
27705;BME280;15109;50.992;6.918;2023-02-12T14:59:13;103154.88;;;11.48;100.00
27705;BME280;15109;50.992;6.918;2023-02-12T15:02:38;103162.50;;;11.45;100.00
27705;BME280;15109;50.992;6.918;2023-02-12T15:06:12;103146.63;;;11.38;100.00
27705;BME280;15109;50.992;6.918;2023-02-12T15:09:35;103158.69;;;11.36;100.00
27705;BME280;15109;50.992;6.918;2023-02-12T15:13:05;103156.09;;;11.34;100.00
27705;BME280;15109;50.992;6.918;2023-02-12T15:20:02;103148.47;;;11.38;100.00
27705;BME280;15109;50.992;6.918;2023-02-12T15:23:31;103153.88;;;11.28;100.00
27705;BME280;15109;50.992;6.918;2023-02-12T15:26:53;103155.75;;;11.28;100.00
27705;BME280;15109;50.992;6.918;2023-02-12T15:30:16;103146.06;;;11.24;100.00
27705;BME280;15109;50.992;6.918;2023-02-12T15:33:40;103145.06;;;11.25;100.00
27705;BME280;15109;50.992;6.918;2023-02-12T15:37:04;103144.47;;;11.21;100.00
27705;BME280;15109;50.992;6.918;2023-02-12T15:40:30;103147.59;;;11.17;100.00
27705;BME280;15109;50.992;6.918;2023-02-12T15:43:51;103141.50;;;11.13;100.00
27705;BME280;15109;50.992;6.918;2023-02-12T15:47:12;103135.59;;;10.97;100.00
27705;BME280;15109;50.992;6.918;2023-02-12T15:50:49;103135.19;;;11.02;100.00
27705;BME280;15109;50.992;6.918;2023-02-12T15:54:13;103140.81;;;11.00;100.00
27705;BME280;15109;50.992;6.918;2023-02-12T15:57:38;103134.47;;;11.00;100.00
27705;BME280;15109;50.992;6.918;2023-02-12T16:01:00;103133.38;;;10.91;100.00
27705;BME280;15109;50.992;6.918;2023-02-12T16:04:23;103129.28;;;10.85;100.00
27705;BME280;15109;50.992;6.918;2023-02-12T16:07:44;103129.69;;;10.81;100.00
27705;BME280;15109;50.992;6.918;2023-02-12T16:11:06;103121.97;;;10.75;100.00
27705;BME280;15109;50.992;6.918;2023-02-12T16:14:38;103122.38;;;10.70;100.00
27705;BME280;15109;50.992;6.918;2023-02-12T16:18:03;103122.75;;;10.66;100.00
27705;BME280;15109;50.992;6.918;2023-02-12T16:21:27;103125.03;;;10.61;100.00
27705;BME280;15109;50.992;6.918;2023-02-12T16:24:49;103118.06;;;10.57;100.00
27705;BME280;15109;50.992;6.918;2023-02-12T16:28:19;103127.38;;;10.54;100.00
27705;BME280;15109;50.992;6.918;2023-02-12T16:31:59;103123.06;;;10.52;100.00
27705;BME280;15109;50.992;6.918;2023-02-12T16:42:09;103133.75;;;10.32;100.00
27705;BME280;15109;50.992;6.918;2023-02-12T16:45:36;103142.09;;;10.42;100.00
27705;BME280;15109;50.992;6.918;2023-02-12T16:48:58;103137.09;;;10.36;100.00
27705;BME280;15109;50.992;6.918;2023-02-12T16:52:25;103133.53;;;10.35;100.00
27705;BME280;15109;50.992;6.918;2023-02-12T16:55:49;103141.97;;;10.32;100.00
27705;BME280;15109;50.992;6.918;2023-02-12T16:59:10;103132.38;;;10.27;100.00
27705;BME280;15109;50.992;6.918;2023-02-12T17:02:31;103144.47;;;10.24;100.00
27705;BME280;15109;50.992;6.918;2023-02-12T17:05:54;103150.91;;;10.23;100.00
27705;BME280;15109;50.992;6.918;2023-02-12T17:09:18;103147.03;;;10.15;100.00
27705;BME280;15109;50.992;6.918;2023-02-12T17:12:45;103145.44;;;10.12;100.00
27705;BME280;15109;50.992;6.918;2023-02-12T17:16:06;103146.44;;;10.00;100.00
27705;BME280;15109;50.992;6.918;2023-02-12T17:19:36;103149.53;;;9.95;100.00
27705;BME280;15109;50.992;6.918;2023-02-12T17:23:00;103152.63;;;9.91;100.00
27705;BME280;15109;50.992;6.918;2023-02-12T17:26:21;103147.44;;;9.88;100.00
27705;BME280;15109;50.992;6.918;2023-02-12T17:29:42;103159.19;;;9.77;100.00
27705;BME280;15109;50.992;6.918;2023-02-12T17:33:04;103147.66;;;9.85;100.00
27705;BME280;15109;50.992;6.918;2023-02-12T17:36:27;103155.34;;;9.80;100.00
27705;BME280;15109;50.992;6.918;2023-02-12T17:39:48;103155.34;;;9.69;100.00
27705;BME280;15109;50.992;6.918;2023-02-12T17:43:09;103162.66;;;9.68;100.00
27705;BME280;15109;50.992;6.918;2023-02-12T17:46:31;103169.88;;;9.69;100.00
27705;BME280;15109;50.992;6.918;2023-02-12T17:49:53;103170.47;;;9.73;100.00
27705;BME280;15109;50.992;6.918;2023-02-12T17:53:16;103170.59;;;9.71;100.00
27705;BME280;15109;50.992;6.918;2023-02-12T17:56:38;103173.06;;;9.63;100.00
27705;BME280;15109;50.992;6.918;2023-02-12T17:59:59;103169.47;;;9.63;100.00
27705;BME280;15109;50.992;6.918;2023-02-12T18:03:20;103170.13;;;9.66;100.00
27705;BME280;15109;50.992;6.918;2023-02-12T18:06:41;103172.84;;;9.66;100.00
27705;BME280;15109;50.992;6.918;2023-02-12T18:10:02;103167.59;;;9.63;100.00
27705;BME280;15109;50.992;6.918;2023-02-12T18:13:25;103170.47;;;9.62;100.00
27705;BME280;15109;50.992;6.918;2023-02-12T18:16:46;103172.69;;;9.56;100.00
27705;BME280;15109;50.992;6.918;2023-02-12T18:20:08;103167.22;;;9.56;100.00
27705;BME280;15109;50.992;6.918;2023-02-12T18:23:29;103170.06;;;9.55;100.00
27705;BME280;15109;50.992;6.918;2023-02-12T18:26:50;103164.97;;;9.50;100.00
27705;BME280;15109;50.992;6.918;2023-02-12T18:30:12;103163.09;;;9.51;100.00
27705;BME280;15109;50.992;6.918;2023-02-12T18:33:34;103160.38;;;9.51;100.00
27705;BME280;15109;50.992;6.918;2023-02-12T18:36:56;103154.53;;;9.44;100.00
27705;BME280;15109;50.992;6.918;2023-02-12T18:40:17;103160.00;;;9.44;100.00
27705;BME280;15109;50.992;6.918;2023-02-12T18:43:42;103158.88;;;9.47;100.00
27705;BME280;15109;50.992;6.918;2023-02-12T18:47:04;103163.56;;;9.45;100.00
27705;BME280;15109;50.992;6.918;2023-02-12T18:50:25;103156.63;;;9.41;100.00
27705;BME280;15109;50.992;6.918;2023-02-12T18:53:47;103159.25;;;9.42;100.00
27705;BME280;15109;50.992;6.918;2023-02-12T18:57:12;103153.31;;;9.48;100.00
27705;BME280;15109;50.992;6.918;2023-02-12T19:00:33;103155.38;;;9.45;100.00
27705;BME280;15109;50.992;6.918;2023-02-12T19:03:58;103157.41;;;9.54;100.00
27705;BME280;15109;50.992;6.918;2023-02-12T19:07:20;103151.06;;;9.53;100.00
27705;BME280;15109;50.992;6.918;2023-02-12T19:10:41;103158.44;;;9.64;100.00
27705;BME280;15109;50.992;6.918;2023-02-12T19:14:02;103160.78;;;9.69;100.00
27705;BME280;15109;50.992;6.918;2023-02-12T19:17:23;103160.69;;;9.70;100.00
27705;BME280;15109;50.992;6.918;2023-02-12T19:20:44;103156.22;;;9.69;100.00
27705;BME280;15109;50.992;6.918;2023-02-12T19:24:05;103159.03;;;9.68;100.00
27705;BME280;15109;50.992;6.918;2023-02-12T19:27:26;103156.22;;;9.69;100.00
27705;BME280;15109;50.992;6.918;2023-02-12T19:30:50;103150.75;;;9.69;100.00
27705;BME280;15109;50.992;6.918;2023-02-12T19:34:15;103158.31;;;9.66;100.00
27705;BME280;15109;50.992;6.918;2023-02-12T19:37:38;103157.56;;;9.64;100.00
27705;BME280;15109;50.992;6.918;2023-02-12T19:41:03;103156.94;;;9.60;100.00
27705;BME280;15109;50.992;6.918;2023-02-12T19:44:24;103158.69;;;9.61;100.00
27705;BME280;15109;50.992;6.918;2023-02-12T19:47:45;103153.31;;;9.60;100.00
27705;BME280;15109;50.992;6.918;2023-02-12T19:51:17;103150.59;;;9.60;100.00
27705;BME280;15109;50.992;6.918;2023-02-12T19:54:38;103157.81;;;9.61;100.00
27705;BME280;15109;50.992;6.918;2023-02-12T19:57:59;103160.63;;;9.59;100.00
27705;BME280;15109;50.992;6.918;2023-02-12T20:01:25;103144.25;;;9.59;100.00
27705;BME280;15109;50.992;6.918;2023-02-12T20:04:48;103146.00;;;9.60;100.00
27705;BME280;15109;50.992;6.918;2023-02-12T20:08:09;103151.72;;;9.57;100.00
27705;BME280;15109;50.992;6.918;2023-02-12T20:11:31;103152.81;;;9.54;100.00
27705;BME280;15109;50.992;6.918;2023-02-12T20:14:53;103137.81;;;9.60;100.00
27705;BME280;15109;50.992;6.918;2023-02-12T20:18:15;103155.59;;;9.66;100.00
27705;BME280;15109;50.992;6.918;2023-02-12T20:21:36;103150.13;;;9.66;100.00
27705;BME280;15109;50.992;6.918;2023-02-12T20:24:58;103147.84;;;9.60;100.00
27705;BME280;15109;50.992;6.918;2023-02-12T20:28:19;103150.47;;;9.61;100.00